createdAt,value
2023-02-05T00:01:24.666Z,22.52
2023-02-05T00:03:51.308Z,22.33
2023-02-05T00:06:18.091Z,22.35
2023-02-05T00:08:44.744Z,22.15
2023-02-05T00:11:11.401Z,22.15
2023-02-05T00:13:39.678Z,23.08
2023-02-05T00:16:16.930Z,22.60
2023-02-05T00:18:44.269Z,24.17
2023-02-05T00:21:11.876Z,22.20
2023-02-05T00:23:39.477Z,24.52
2023-02-05T00:26:07.033Z,22.40
2023-02-05T00:28:36.802Z,22.10
2023-02-05T00:31:16.117Z,22.48
2023-02-05T00:33:43.156Z,23.00
2023-02-05T00:36:12.675Z,22.27
2023-02-05T00:38:40.730Z,21.88
2023-02-05T00:41:07.525Z,22.70
2023-02-05T00:43:34.249Z,22.25
2023-02-05T00:46:00.925Z,22.25
2023-02-05T00:48:27.624Z,22.33
2023-02-05T00:50:54.582Z,23.20
2023-02-05T00:53:22.410Z,22.48
2023-02-05T00:55:49.064Z,23.27
2023-02-05T00:58:16.038Z,22.48
2023-02-05T01:00:43.125Z,22.23
2023-02-05T01:03:10.022Z,22.40
2023-02-05T01:05:38.142Z,22.02
2023-02-05T01:08:06.260Z,22.42
2023-02-05T01:10:33.083Z,22.73
2023-02-05T01:12:59.949Z,21.92
2023-02-05T01:15:26.776Z,22.50
2023-02-05T01:17:53.341Z,22.42
2023-02-05T01:20:20.513Z,22.30
2023-02-05T01:22:47.551Z,22.27
2023-02-05T01:25:14.096Z,21.55
2023-02-05T01:27:40.691Z,21.42
2023-02-05T01:30:08.006Z,22.08
2023-02-05T01:32:35.600Z,21.48
2023-02-05T01:35:02.157Z,21.33
2023-02-05T01:37:28.726Z,21.50
2023-02-05T01:39:55.502Z,22.27
2023-02-05T01:42:31.784Z,21.42
2023-02-05T01:45:23.395Z,21.40
2023-02-05T01:47:58.008Z,21.38
2023-02-05T01:50:43.012Z,20.27
2023-02-05T01:53:13.649Z,20.77
2023-02-05T01:55:57.294Z,20.55
2023-02-05T01:58:27.620Z,20.60
2023-02-05T02:00:54.936Z,20.73
2023-02-05T02:03:24.589Z,20.80
2023-02-05T02:05:51.177Z,20.38
2023-02-05T02:08:17.770Z,21.10
2023-02-05T02:10:46.224Z,20.85
2023-02-05T02:13:13.320Z,22.00
2023-02-05T02:15:41.104Z,21.45
2023-02-05T02:18:27.708Z,21.15
2023-02-05T02:21:19.742Z,20.70
2023-02-05T02:24:01.214Z,21.42
2023-02-05T02:26:58.721Z,20.35
2023-02-05T02:29:51.152Z,21.77
2023-02-05T02:32:39.056Z,21.20
2023-02-05T02:35:11.685Z,21.00
2023-02-05T02:37:45.945Z,21.30
2023-02-05T02:40:18.490Z,21.50
2023-02-05T02:42:58.812Z,21.60
2023-02-05T02:45:29.256Z,20.80
2023-02-05T02:47:58.669Z,21.25
2023-02-05T02:50:32.932Z,20.77
2023-02-05T02:53:13.711Z,20.48
2023-02-05T02:55:43.762Z,20.83
2023-02-05T02:58:16.795Z,21.10
2023-02-05T03:00:46.016Z,20.75
2023-02-05T03:03:16.832Z,21.45
2023-02-05T03:05:45.887Z,20.42
2023-02-05T03:08:28.388Z,20.73
2023-02-05T03:11:04.988Z,20.98
2023-02-05T03:13:32.335Z,21.88
2023-02-05T03:15:59.060Z,20.67
2023-02-05T03:18:25.747Z,21.13
2023-02-05T03:20:56.763Z,20.98
2023-02-05T03:23:26.116Z,20.60
2023-02-05T03:25:52.652Z,21.15
2023-02-05T03:28:19.557Z,20.75
2023-02-05T03:31:00.615Z,21.15
2023-02-05T03:33:54.524Z,21.33
2023-02-05T03:36:34.801Z,21.20
2023-02-05T03:39:22.894Z,20.55
2023-02-05T03:42:10.927Z,20.85
2023-02-05T03:45:05.707Z,21.45
2023-02-05T03:47:44.188Z,21.95
2023-02-05T03:50:16.729Z,21.55
2023-02-05T03:52:50.778Z,21.15
2023-02-05T03:55:41.272Z,21.38
2023-02-05T03:58:15.090Z,21.40
2023-02-05T04:00:42.461Z,21.73
2023-02-05T04:03:09.208Z,21.23
2023-02-05T04:05:36.385Z,20.90
2023-02-05T04:08:03.294Z,21.83
2023-02-05T04:10:29.851Z,21.13
2023-02-05T04:12:56.415Z,22.42
2023-02-05T04:15:23.676Z,22.20
2023-02-05T04:17:50.248Z,22.08
2023-02-05T04:20:17.015Z,22.00
2023-02-05T04:22:43.715Z,21.40
2023-02-05T04:25:10.261Z,22.30
2023-02-05T04:27:36.830Z,22.08
2023-02-05T04:30:03.552Z,22.63
2023-02-05T04:32:30.108Z,21.88
2023-02-05T04:34:56.679Z,22.00
2023-02-05T04:37:25.017Z,22.25
2023-02-05T04:39:51.807Z,22.50
2023-02-05T04:42:18.376Z,21.95
2023-02-05T04:44:44.924Z,22.08
2023-02-05T04:47:12.900Z,21.58
2023-02-05T04:49:40.840Z,22.10
2023-02-05T04:52:08.158Z,22.90
2023-02-05T04:54:36.016Z,22.75
2023-02-05T04:57:02.576Z,23.23
2023-02-05T04:59:30.366Z,22.58
2023-02-05T05:01:57.608Z,22.38
2023-02-05T05:04:24.198Z,23.08
2023-02-05T05:06:50.789Z,22.00
2023-02-05T05:09:17.477Z,22.50
2023-02-05T05:11:43.990Z,21.95
2023-02-05T05:14:10.757Z,22.00
2023-02-05T05:16:37.355Z,22.00
2023-02-05T05:19:04.522Z,22.15
2023-02-05T05:21:31.179Z,22.38
2023-02-05T05:23:57.718Z,21.88
2023-02-05T05:26:24.436Z,22.67
2023-02-05T05:28:55.339Z,22.42
2023-02-05T05:31:22.411Z,22.67
2023-02-05T05:33:49.061Z,22.40
2023-02-05T05:36:16.827Z,21.85
2023-02-05T05:38:44.130Z,22.27
2023-02-05T05:41:38.238Z,22.17
2023-02-05T05:44:04.904Z,22.25
2023-02-05T05:46:31.537Z,22.00
2023-02-05T05:49:00.251Z,23.98
2023-02-05T05:51:28.757Z,22.70
2023-02-05T05:53:55.839Z,22.35
2023-02-05T05:56:23.447Z,22.42
2023-02-05T05:58:50.824Z,22.58
2023-02-05T06:01:20.431Z,23.00
2023-02-05T06:03:47.058Z,23.13
2023-02-05T06:06:13.805Z,22.85
2023-02-05T06:08:40.801Z,22.52
2023-02-05T06:11:07.645Z,22.92
2023-02-05T06:13:34.979Z,23.00
2023-02-05T06:16:01.723Z,25.05
2023-02-05T06:18:28.397Z,23.80
2023-02-05T06:20:54.940Z,23.27
2023-02-05T06:23:21.764Z,23.30
2023-02-05T06:25:48.436Z,23.45
2023-02-05T06:28:15.119Z,22.70
2023-02-05T06:30:41.721Z,24.17
2023-02-05T06:33:08.336Z,24.27
2023-02-05T06:35:36.651Z,24.17
2023-02-05T06:38:03.384Z,23.83
2023-02-05T06:40:30.120Z,25.30
2023-02-05T06:42:56.690Z,25.08
2023-02-05T06:45:23.348Z,24.60
2023-02-05T06:47:52.756Z,24.98
2023-02-05T06:50:20.164Z,24.75
2023-02-05T06:52:46.758Z,24.23
2023-02-05T06:55:13.450Z,24.88
2023-02-05T06:57:40.044Z,24.27
2023-02-05T07:00:07.304Z,23.88
2023-02-05T07:02:34.371Z,24.50
2023-02-05T07:05:01.038Z,23.80
2023-02-05T07:07:28.349Z,23.52
2023-02-05T07:09:55.081Z,24.98
2023-02-05T07:12:22.359Z,23.17
2023-02-05T07:14:48.938Z,24.33
2023-02-05T07:17:15.726Z,23.77
2023-02-05T07:19:42.314Z,23.88
2023-02-05T07:22:09.191Z,23.25
2023-02-05T07:24:35.732Z,23.10
2023-02-05T07:27:02.315Z,24.23
2023-02-05T07:29:28.977Z,23.75
2023-02-05T07:31:55.569Z,23.13
2023-02-05T07:34:22.157Z,22.95
2023-02-05T07:36:52.664Z,22.42
2023-02-05T07:39:19.787Z,23.00
2023-02-05T07:41:46.612Z,23.33
2023-02-05T07:44:13.273Z,22.88
2023-02-05T07:46:40.178Z,23.90
2023-02-05T07:49:07.162Z,23.05
2023-02-05T07:51:35.359Z,23.38
2023-02-05T07:54:06.513Z,23.35
2023-02-05T07:56:33.167Z,22.50
2023-02-05T07:58:59.767Z,22.38
2023-02-05T08:01:26.411Z,23.38
2023-02-05T08:03:53.023Z,23.08
2023-02-05T08:06:19.606Z,23.42
2023-02-05T08:08:46.148Z,22.45
2023-02-05T08:11:17.796Z,22.48
2023-02-05T08:13:46.051Z,22.60
2023-02-05T08:16:15.757Z,22.75
2023-02-05T08:18:43.074Z,21.90
2023-02-05T08:21:09.647Z,21.35
2023-02-05T08:23:36.306Z,22.20
2023-02-05T08:26:02.887Z,21.58
2023-02-05T08:28:31.916Z,21.63
2023-02-05T08:30:58.743Z,20.98
2023-02-05T08:33:25.724Z,21.00
2023-02-05T08:35:52.500Z,20.73
2023-02-05T08:38:19.057Z,20.30
2023-02-05T08:40:45.681Z,20.40
2023-02-05T08:43:12.340Z,19.58
2023-02-05T08:45:39.413Z,20.38
2023-02-05T08:48:06.134Z,19.83
2023-02-05T08:50:32.745Z,19.95
2023-02-05T08:52:59.279Z,19.90
2023-02-05T08:55:25.847Z,20.00
2023-02-05T08:57:52.996Z,19.60
2023-02-05T09:00:21.122Z,19.95
2023-02-05T09:02:47.713Z,20.17
2023-02-05T09:05:14.307Z,19.50
2023-02-05T09:07:41.642Z,19.42
2023-02-05T09:10:13.019Z,19.48
2023-02-05T09:12:40.036Z,20.20
2023-02-05T09:15:07.791Z,20.63
2023-02-05T09:17:34.469Z,19.35
2023-02-05T09:20:01.251Z,19.98
2023-02-05T09:22:27.814Z,19.52
2023-02-05T09:24:54.409Z,19.08
2023-02-05T09:27:20.996Z,19.13
2023-02-05T09:29:47.583Z,18.52
2023-02-05T09:32:14.267Z,18.77
2023-02-05T09:34:40.962Z,18.88
2023-02-05T09:37:07.511Z,18.60
2023-02-05T09:40:17.678Z,17.88
2023-02-05T09:42:40.498Z,18.60
2023-02-05T09:45:20.577Z,19.55
2023-02-05T09:47:57.956Z,18.98
2023-02-05T09:50:29.814Z,18.13
2023-02-05T09:53:01.803Z,18.20
2023-02-05T09:55:31.413Z,17.60
2023-02-05T09:58:06.408Z,17.27
2023-02-05T10:00:51.480Z,17.52
2023-02-05T10:06:10.423Z,17.20
2023-02-05T10:08:51.908Z,17.50
2023-02-05T10:11:37.897Z,17.38
2023-02-05T10:14:31.356Z,17.50
2023-02-05T10:17:00.953Z,18.05
2023-02-05T10:19:40.420Z,17.38
2023-02-05T10:22:54.658Z,18.27
2023-02-05T10:25:33.721Z,18.10
2023-02-05T10:28:09.649Z,17.90
2023-02-05T10:30:36.213Z,18.50
2023-02-05T10:33:14.051Z,17.90
2023-02-05T10:35:56.326Z,17.15
2023-02-05T10:38:24.742Z,17.75
2023-02-05T10:41:00.227Z,17.75
2023-02-05T10:43:39.262Z,17.13
2023-02-05T10:46:12.298Z,17.23
2023-02-05T10:49:01.414Z,17.50
2023-02-05T10:51:42.238Z,17.48
2023-02-05T10:54:30.295Z,18.13
2023-02-05T10:56:59.103Z,17.55
2023-02-05T10:59:31.318Z,17.98
2023-02-05T11:02:03.800Z,18.20
2023-02-05T11:04:44.841Z,18.20
2023-02-05T11:07:14.622Z,17.85
2023-02-05T11:09:42.368Z,18.20
2023-02-05T11:12:29.249Z,18.30
2023-02-05T11:15:01.765Z,18.40
2023-02-05T11:17:33.821Z,18.33
2023-02-05T11:20:04.535Z,19.70
2023-02-05T11:22:35.236Z,20.75
2023-02-05T11:25:18.678Z,20.17
2023-02-05T11:28:04.951Z,20.33
2023-02-05T11:33:24.445Z,21.75
2023-02-05T11:35:53.918Z,21.02
2023-02-05T11:38:47.097Z,20.80
2023-02-05T11:41:26.597Z,21.30
2023-02-05T11:43:53.918Z,20.55
2023-02-05T11:46:27.932Z,20.75
2023-02-05T11:49:05.078Z,21.20
2023-02-05T11:51:45.820Z,21.50
2023-02-05T11:54:19.443Z,20.85
2023-02-05T11:57:24.982Z,21.38
2023-02-05T11:59:56.022Z,22.15
2023-02-05T12:02:28.783Z,21.70
2023-02-05T12:05:19.251Z,20.70
2023-02-05T12:07:52.498Z,21.25
2023-02-05T12:10:31.109Z,19.83
2023-02-05T12:13:24.490Z,20.23
2023-02-05T12:15:56.076Z,20.92
2023-02-05T12:18:37.983Z,21.58
2023-02-05T12:21:23.659Z,20.55
2023-02-05T12:24:05.372Z,20.58
2023-02-05T12:26:45.240Z,20.27
2023-02-05T12:29:45.028Z,21.88
2023-02-05T12:32:21.199Z,22.40
2023-02-05T12:35:12.717Z,22.80
2023-02-05T12:38:05.401Z,23.20
2023-02-05T12:40:50.646Z,23.10
2023-02-05T12:43:29.228Z,19.73
2023-02-05T12:45:58.720Z,19.48
2023-02-05T12:48:47.443Z,17.90
2023-02-05T12:51:35.301Z,19.20
2023-02-05T12:54:17.573Z,19.60
2023-02-05T12:56:59.339Z,16.33
2023-02-05T12:59:40.887Z,16.35
2023-02-05T13:02:16.171Z,16.40
2023-02-05T13:04:49.289Z,15.73
2023-02-05T13:07:30.716Z,15.13
2023-02-05T13:10:06.795Z,15.60
2023-02-05T13:12:38.485Z,16.40
2023-02-05T13:15:25.345Z,16.10
2023-02-05T13:18:22.423Z,17.05
2023-02-05T13:21:15.960Z,17.55
2023-02-05T13:24:03.482Z,16.88
2023-02-05T13:26:58.805Z,15.98
2023-02-05T13:29:30.337Z,17.48
2023-02-05T13:32:15.977Z,16.27
2023-02-05T13:34:43.216Z,18.10
2023-02-05T13:37:32.726Z,16.70
2023-02-05T13:40:17.344Z,17.05
2023-02-05T13:42:50.775Z,16.75
2023-02-05T13:45:52.631Z,15.70
2023-02-05T13:49:08.951Z,15.88
2023-02-05T13:51:38.958Z,15.90
2023-02-05T13:54:39.153Z,16.30
2023-02-05T13:57:27.551Z,16.05
2023-02-05T13:59:54.788Z,14.50
2023-02-05T14:02:38.206Z,16.10
2023-02-05T14:05:06.253Z,15.73
2023-02-05T14:07:46.744Z,15.35
2023-02-05T14:10:29.568Z,16.33
2023-02-05T14:13:16.302Z,15.80
2023-02-05T14:15:43.940Z,15.30
2023-02-05T14:18:12.802Z,16.60
2023-02-05T14:20:44.666Z,15.70
2023-02-05T14:23:16.981Z,16.23
2023-02-05T14:26:06.389Z,16.98
2023-02-05T14:28:34.592Z,16.80
2023-02-05T14:31:05.718Z,16.02
2023-02-05T14:33:43.523Z,16.55
2023-02-05T14:36:21.274Z,16.17
2023-02-05T14:39:03.653Z,17.42
2023-02-05T14:41:33.839Z,17.00
2023-02-05T14:44:04.379Z,16.20
2023-02-05T14:46:41.715Z,15.80
2023-02-05T14:49:23.362Z,16.73
2023-02-05T14:51:59.229Z,16.40
2023-02-05T14:54:30.081Z,15.88
2023-02-05T14:57:17.650Z,16.77
2023-02-05T14:59:50.029Z,15.25
2023-02-05T15:02:54.764Z,16.95
2023-02-05T15:05:46.813Z,17.20
2023-02-05T15:08:37.820Z,16.35
2023-02-05T15:11:33.520Z,16.80
2023-02-05T15:14:19.526Z,17.02
2023-02-05T15:17:11.528Z,16.85
2023-02-05T15:19:43.368Z,17.05
2023-02-05T15:22:30.728Z,17.80
2023-02-05T15:24:58.232Z,18.15
2023-02-05T15:27:41.400Z,17.75
2023-02-05T15:30:16.860Z,19.20
2023-02-05T15:32:52.977Z,18.83
2023-02-05T15:35:24.628Z,18.95
2023-02-05T15:38:04.005Z,19.20
2023-02-05T15:40:33.681Z,19.45
2023-02-05T15:43:09.552Z,18.75
2023-02-05T15:45:44.887Z,19.23
2023-02-05T15:48:13.603Z,20.45
2023-02-05T15:50:47.527Z,19.95
2023-02-05T15:53:35.250Z,20.83
2023-02-05T15:56:25.068Z,21.40
2023-02-05T15:58:55.186Z,20.58
2023-02-05T16:01:28.487Z,21.58
2023-02-05T16:03:55.214Z,21.67
2023-02-05T16:06:23.540Z,22.88
2023-02-05T16:08:52.602Z,23.00
2023-02-05T16:11:35.200Z,24.42
2023-02-05T16:14:16.509Z,23.48
2023-02-05T16:17:08.262Z,30.75
2023-02-05T16:19:53.726Z,26.23
2023-02-05T16:22:32.313Z,24.98
2023-02-05T16:25:03.331Z,24.08
2023-02-05T16:27:32.630Z,25.38
2023-02-05T16:30:07.365Z,23.20
2023-02-05T16:35:07.898Z,21.67
2023-02-05T16:37:35.821Z,22.65
2023-02-05T16:40:06.716Z,21.45
2023-02-05T16:42:39.029Z,19.58
2023-02-05T16:45:08.509Z,20.33
2023-02-05T16:47:36.145Z,20.10
2023-02-05T16:50:42.586Z,19.70
2023-02-05T16:53:16.230Z,19.63
2023-02-05T16:55:44.022Z,19.80
2023-02-05T16:58:23.115Z,19.65
2023-02-05T17:01:07.900Z,19.92
2023-02-05T17:03:37.873Z,19.67
2023-02-05T17:06:12.256Z,19.10
2023-02-05T17:08:40.143Z,20.25
2023-02-05T17:11:27.897Z,20.05
2023-02-05T17:14:10.227Z,19.40
2023-02-05T17:16:41.069Z,18.65
2023-02-05T17:19:24.433Z,18.90
2023-02-05T17:22:13.849Z,18.40
2023-02-05T17:24:41.738Z,18.98
2023-02-05T17:27:28.466Z,20.45
2023-02-05T17:29:56.803Z,18.30
2023-02-05T17:32:24.004Z,19.08
2023-02-05T17:34:50.571Z,19.00
2023-02-05T17:37:17.183Z,20.30
2023-02-05T17:39:43.970Z,20.15
2023-02-05T17:42:23.516Z,18.42
2023-02-05T17:44:51.085Z,18.55
2023-02-05T17:47:18.658Z,19.48
2023-02-05T17:49:45.234Z,18.40
2023-02-05T17:52:12.235Z,19.63
2023-02-05T17:54:38.897Z,20.15
2023-02-05T17:57:19.726Z,18.15
2023-02-05T17:59:47.413Z,18.95
2023-02-05T18:02:15.368Z,18.83
2023-02-05T18:04:42.445Z,19.67
2023-02-05T18:07:39.373Z,19.90
2023-02-05T18:10:06.737Z,19.80
2023-02-05T18:12:33.782Z,19.40
2023-02-05T18:15:00.371Z,19.23
2023-02-05T18:17:26.970Z,20.00
2023-02-05T18:19:53.615Z,19.65
2023-02-05T18:22:20.327Z,19.00
2023-02-05T18:24:46.857Z,20.60
2023-02-05T18:27:13.501Z,19.27
2023-02-05T18:29:41.723Z,18.90
2023-02-05T18:32:09.971Z,19.65
2023-02-05T18:34:36.580Z,20.90
2023-02-05T18:37:03.172Z,20.85
2023-02-05T18:39:29.812Z,19.60
2023-02-05T18:41:57.561Z,20.35
2023-02-05T18:44:25.700Z,20.38
2023-02-05T18:46:52.689Z,20.75
2023-02-05T18:49:19.275Z,20.80
2023-02-05T18:51:46.053Z,19.30
2023-02-05T18:54:12.652Z,20.20
2023-02-05T18:56:39.296Z,22.17
2023-02-05T18:59:07.889Z,21.13
2023-02-05T19:01:38.069Z,21.08
2023-02-05T19:04:08.163Z,20.20
2023-02-05T19:06:35.253Z,21.80
2023-02-05T19:09:02.659Z,21.00
2023-02-05T19:11:30.466Z,20.75
2023-02-05T19:13:58.701Z,21.70
2023-02-05T19:16:26.905Z,22.38
2023-02-05T19:18:53.684Z,22.08
2023-02-05T19:21:21.821Z,21.60
2023-02-05T19:23:54.234Z,21.13
2023-02-05T19:26:24.026Z,22.25
2023-02-05T19:28:56.811Z,20.55
2023-02-05T19:31:26.161Z,21.10
2023-02-05T19:33:52.970Z,22.15
2023-02-05T19:36:22.633Z,20.65
2023-02-05T19:38:49.277Z,20.38
2023-02-05T19:41:18.440Z,22.00
2023-02-05T19:43:50.883Z,21.52
2023-02-05T19:46:19.589Z,23.42
2023-02-05T19:48:46.930Z,21.85
2023-02-05T19:51:14.859Z,22.83
2023-02-05T19:53:44.046Z,21.35
2023-02-05T19:56:17.199Z,23.20
2023-02-05T19:58:47.632Z,22.05
2023-02-05T20:01:23.752Z,22.27
2023-02-05T20:04:17.146Z,23.13
2023-02-05T20:06:46.109Z,21.38
2023-02-05T20:09:14.098Z,23.10
2023-02-05T20:11:42.507Z,23.15
2023-02-05T20:14:10.491Z,22.05
2023-02-05T20:16:40.446Z,24.40
2023-02-05T20:19:09.631Z,23.23
2023-02-05T20:21:37.192Z,22.33
2023-02-05T20:24:04.666Z,23.75
2023-02-05T20:26:31.848Z,24.35
2023-02-05T20:29:17.051Z,25.55
2023-02-05T20:31:47.891Z,25.45
2023-02-05T20:34:21.957Z,26.35
2023-02-05T20:36:51.448Z,23.33
2023-02-05T20:39:19.222Z,24.48
2023-02-05T20:41:47.614Z,25.05
2023-02-05T20:44:14.720Z,23.85
2023-02-05T20:46:41.349Z,25.25
2023-02-05T20:49:09.048Z,24.40
2023-02-05T20:51:36.536Z,23.38
2023-02-05T20:54:03.904Z,24.67
2023-02-05T20:56:31.642Z,26.15
2023-02-05T20:58:59.647Z,26.48
2023-02-05T21:01:28.026Z,27.00
2023-02-05T21:04:00.296Z,25.65
2023-02-05T21:06:29.904Z,25.00
2023-02-05T21:08:56.738Z,24.35
2023-02-05T21:11:24.618Z,26.33
2023-02-05T21:13:52.003Z,23.55
2023-02-05T21:16:21.353Z,24.35
2023-02-05T21:18:49.165Z,24.52
2023-02-05T21:21:21.871Z,24.35
2023-02-05T21:23:49.090Z,25.27
2023-02-05T21:26:21.149Z,26.63
2023-02-05T21:28:47.884Z,28.85
2023-02-05T21:31:15.002Z,26.60
2023-02-05T21:33:41.624Z,26.02
2023-02-05T21:36:10.793Z,26.83
2023-02-05T21:38:42.374Z,25.98
2023-02-05T21:41:17.868Z,27.77
2023-02-05T21:43:49.646Z,28.63
2023-02-05T21:46:16.340Z,34.00
2023-02-05T21:48:46.630Z,33.08
2023-02-05T21:51:15.147Z,37.38
2023-02-05T21:53:42.462Z,40.10
2023-02-05T21:56:11.361Z,42.67
2023-02-05T21:58:39.502Z,40.33
2023-02-05T22:01:14.869Z,36.47
2023-02-05T22:03:42.988Z,37.25
2023-02-05T22:06:09.620Z,40.10
2023-02-05T22:08:38.028Z,34.50
2023-02-05T22:11:06.664Z,41.15
2023-02-05T22:13:35.241Z,37.42
2023-02-05T22:16:07.844Z,35.67
2023-02-05T22:18:35.618Z,56.05
2023-02-05T22:21:22.809Z,53.42
2023-02-05T22:23:51.577Z,42.97
2023-02-05T22:26:20.363Z,50.20
2023-02-05T22:28:47.244Z,40.80
2023-02-05T22:31:16.540Z,36.22
2023-02-05T22:33:45.885Z,38.70
2023-02-05T22:36:13.915Z,34.58
2023-02-05T22:38:42.185Z,33.03
2023-02-05T22:41:14.954Z,36.10
2023-02-05T22:43:42.151Z,38.58
2023-02-05T22:46:12.297Z,38.88
2023-02-05T22:48:40.940Z,45.88
2023-02-05T22:51:10.636Z,51.13
2023-02-05T22:53:37.496Z,51.50
2023-02-05T22:56:10.358Z,52.58
2023-02-05T22:58:42.134Z,48.80
2023-02-05T23:01:08.999Z,51.22
2023-02-05T23:03:36.218Z,51.60
2023-02-05T23:06:11.516Z,52.30
2023-02-05T23:08:38.643Z,48.45
2023-02-05T23:11:10.601Z,48.65
2023-02-05T23:13:38.557Z,46.47
2023-02-05T23:16:13.455Z,46.35
2023-02-05T23:18:41.798Z,54.40
2023-02-05T23:21:18.760Z,49.05
2023-02-05T23:23:46.351Z,49.22
2023-02-05T23:26:19.608Z,51.47
2023-02-05T23:28:47.443Z,49.85
2023-02-05T23:31:14.309Z,50.40
2023-02-05T23:33:41.187Z,57.35
2023-02-05T23:36:08.967Z,53.15
2023-02-05T23:38:36.003Z,49.70
2023-02-05T23:41:03.594Z,53.33
2023-02-05T23:43:32.788Z,52.70
2023-02-05T23:45:59.926Z,50.75
2023-02-05T23:48:26.664Z,51.88
2023-02-05T23:50:54.998Z,54.13
2023-02-05T23:53:21.677Z,56.72
2023-02-05T23:55:49.653Z,64.35
2023-02-05T23:58:18.148Z,53.33
